createdAt,value
2022-08-03T00:02:36.374Z,26.19
2022-08-03T00:05:40.135Z,26.42
2022-08-03T00:09:05.141Z,26.63
2022-08-03T00:12:08.740Z,26.78
2022-08-03T00:15:16.498Z,26.89
2022-08-03T00:18:20.255Z,27.02
2022-08-03T00:21:23.407Z,27.07
2022-08-03T00:24:28.002Z,27.16
2022-08-03T00:27:32.657Z,27.17
2022-08-03T00:30:37.263Z,27.17
2022-08-03T00:33:59.720Z,27.15
2022-08-03T00:37:05.972Z,27.12
2022-08-03T00:40:13.750Z,27.21
2022-08-03T00:43:19.548Z,27.11
2022-08-03T00:46:23.042Z,27.21
2022-08-03T00:49:26.242Z,27.09
2022-08-03T00:52:29.436Z,26.85
2022-08-03T00:55:34.858Z,26.82
2022-08-03T00:58:38.670Z,26.76
2022-08-03T01:01:41.852Z,26.70
2022-08-03T01:04:44.983Z,26.69
2022-08-03T01:08:00.203Z,26.66
2022-08-03T01:11:13.416Z,26.64
2022-08-03T01:14:22.631Z,26.72
2022-08-03T01:17:38.209Z,26.86
2022-08-03T01:20:45.736Z,27.00
2022-08-03T01:24:04.103Z,27.10
2022-08-03T01:27:12.130Z,27.18
2022-08-03T01:30:16.925Z,27.25
2022-08-03T01:33:23.961Z,27.27
2022-08-03T01:36:33.888Z,27.27
2022-08-03T01:39:39.816Z,27.24
2022-08-03T01:42:45.517Z,27.20
2022-08-03T01:45:51.033Z,27.08
2022-08-03T01:48:55.078Z,26.99
2022-08-03T01:52:04.086Z,26.91
2022-08-03T01:55:10.990Z,26.82
2022-08-03T01:58:16.378Z,26.77
2022-08-03T02:01:22.954Z,26.73
2022-08-03T02:04:29.097Z,26.69
2022-08-03T02:07:34.327Z,26.68
2022-08-03T02:10:38.937Z,26.77
2022-08-03T02:13:42.986Z,26.94
2022-08-03T02:16:50.408Z,27.03
2022-08-03T02:19:55.100Z,27.01
2022-08-03T02:22:58.401Z,27.02
2022-08-03T02:26:05.765Z,27.10
2022-08-03T02:29:15.058Z,27.14
2022-08-03T02:32:25.520Z,27.12
2022-08-03T02:35:31.916Z,27.01
2022-08-03T02:38:37.974Z,26.90
2022-08-03T02:41:46.509Z,26.73
2022-08-03T02:44:54.591Z,26.71
2022-08-03T02:48:04.058Z,26.55
2022-08-03T02:51:07.403Z,26.57
2022-08-03T02:54:12.001Z,26.46
2022-08-03T02:57:16.490Z,26.47
2022-08-03T03:00:28.466Z,26.43
2022-08-03T03:03:39.997Z,26.53
2022-08-03T03:06:49.529Z,26.63
2022-08-03T03:09:53.662Z,26.72
2022-08-03T03:12:59.068Z,26.79
2022-08-03T03:16:05.067Z,26.85
2022-08-03T03:19:11.429Z,26.77
2022-08-03T03:22:16.439Z,26.86
2022-08-03T03:25:21.477Z,26.86
2022-08-03T03:28:25.470Z,26.75
2022-08-03T03:31:28.830Z,26.75
2022-08-03T03:34:34.197Z,26.62
2022-08-03T03:37:37.307Z,26.60
2022-08-03T03:40:40.672Z,26.56
2022-08-03T03:43:44.673Z,26.42
2022-08-03T03:46:47.891Z,26.26
2022-08-03T03:49:53.854Z,25.85
2022-08-03T03:52:56.961Z,26.11
2022-08-03T03:56:02.627Z,26.28
2022-08-03T03:59:06.382Z,26.32
2022-08-03T04:02:10.728Z,26.35
2022-08-03T04:05:47.897Z,26.53
2022-08-03T04:09:08.654Z,26.52
2022-08-03T04:12:11.880Z,26.14
2022-08-03T04:15:16.772Z,26.07
2022-08-03T04:18:22.671Z,26.13
2022-08-03T04:21:31.513Z,26.20
2022-08-03T04:24:40.384Z,24.95
2022-08-03T04:27:44.908Z,24.41
2022-08-03T04:31:08.639Z,25.14
2022-08-03T04:34:11.734Z,25.47
2022-08-03T04:37:22.973Z,25.69
2022-08-03T04:40:31.562Z,25.90
2022-08-03T04:43:35.793Z,25.99
2022-08-03T04:46:41.077Z,25.99
2022-08-03T04:49:54.253Z,25.98
2022-08-03T04:52:58.759Z,26.10
2022-08-03T04:56:05.760Z,26.25
2022-08-03T04:59:09.160Z,26.33
2022-08-03T05:02:12.418Z,26.11
2022-08-03T05:05:15.987Z,25.85
2022-08-03T05:08:27.651Z,26.08
2022-08-03T05:11:31.681Z,26.21
2022-08-03T05:14:37.085Z,26.36
2022-08-03T05:17:40.442Z,26.53
2022-08-03T05:20:43.784Z,26.56
2022-08-03T05:23:48.256Z,26.47
2022-08-03T05:26:51.340Z,26.53
2022-08-03T05:29:54.438Z,26.35
2022-08-03T05:32:57.615Z,26.08
2022-08-03T05:36:04.252Z,25.95
2022-08-03T05:39:09.090Z,25.75
2022-08-03T05:42:12.219Z,25.90
2022-08-03T05:45:17.724Z,26.05
2022-08-03T05:48:20.878Z,26.15
2022-08-03T05:51:23.999Z,26.23
2022-08-03T05:54:57.334Z,26.27
2022-08-03T05:57:51.638Z,26.13
2022-08-03T06:00:58.251Z,26.35
2022-08-03T06:04:01.327Z,26.55
2022-08-03T06:07:04.385Z,26.74
2022-08-03T06:10:37.580Z,26.81
2022-08-03T06:13:33.488Z,26.68
2022-08-03T06:16:36.668Z,26.74
2022-08-03T06:19:39.856Z,26.37
2022-08-03T06:22:50.566Z,26.62
2022-08-03T06:25:55.928Z,26.86
2022-08-03T06:28:59.301Z,26.36
2022-08-03T06:32:02.440Z,26.68
2022-08-03T06:35:06.847Z,26.73
2022-08-03T06:38:10.400Z,26.69
2022-08-03T06:41:15.170Z,26.69
2022-08-03T06:44:18.271Z,26.73
2022-08-03T06:47:21.360Z,26.82
2022-08-03T06:50:26.249Z,26.85
2022-08-03T06:53:29.519Z,26.85
2022-08-03T06:56:34.030Z,26.79
2022-08-03T07:00:09.789Z,27.02
2022-08-03T07:03:00.387Z,26.68
2022-08-03T07:06:03.530Z,26.50
2022-08-03T07:09:06.718Z,26.37
2022-08-03T07:12:11.326Z,26.23
2022-08-03T07:15:20.499Z,26.18
2022-08-03T07:18:40.235Z,25.95
2022-08-03T07:21:43.582Z,25.89
2022-08-03T07:24:47.793Z,25.79
2022-08-03T07:27:52.590Z,25.66
2022-08-03T07:30:55.671Z,25.52
2022-08-03T07:33:58.739Z,25.41
2022-08-03T07:37:01.891Z,25.29
2022-08-03T07:40:06.633Z,25.69
2022-08-03T07:43:11.164Z,26.12
2022-08-03T07:46:15.032Z,26.38
2022-08-03T07:49:18.224Z,26.42
2022-08-03T07:52:39.213Z,26.56
2022-08-03T07:55:42.515Z,26.57
2022-08-03T07:58:46.979Z,26.64
2022-08-03T08:01:53.114Z,26.83
2022-08-03T08:04:56.184Z,26.96
2022-08-03T08:07:59.306Z,27.09
2022-08-03T08:11:02.552Z,27.18
2022-08-03T08:14:09.828Z,27.24
2022-08-03T08:17:13.142Z,27.30
2022-08-03T08:20:27.744Z,27.38
2022-08-03T08:23:42.436Z,27.42
2022-08-03T08:26:46.695Z,27.32
2022-08-03T08:29:54.161Z,27.27
2022-08-03T08:32:58.870Z,27.28
2022-08-03T08:36:05.177Z,27.32
2022-08-03T08:39:08.269Z,27.25
2022-08-03T08:42:11.523Z,27.19
2022-08-03T08:45:16.184Z,27.19
2022-08-03T08:48:25.681Z,27.11
2022-08-03T08:51:54.574Z,27.15
2022-08-03T08:55:00.216Z,27.23
2022-08-03T08:58:07.449Z,27.34
2022-08-03T09:01:12.268Z,27.30
2022-08-03T09:04:15.592Z,27.35
2022-08-03T09:07:20.573Z,27.60
2022-08-03T09:10:23.737Z,27.66
2022-08-03T09:13:26.888Z,27.72
2022-08-03T09:16:31.409Z,27.67
2022-08-03T09:19:35.945Z,27.93
2022-08-03T09:22:54.687Z,27.90
2022-08-03T09:26:01.611Z,27.80
2022-08-03T09:29:13.223Z,27.65
2022-08-03T09:32:22.201Z,27.62
2022-08-03T09:35:51.779Z,27.77
2022-08-03T09:39:03.523Z,27.65
2022-08-03T09:42:08.666Z,27.63
2022-08-03T09:45:28.087Z,27.82
2022-08-03T09:48:35.072Z,27.87
2022-08-03T09:52:32.734Z,27.97
2022-08-03T09:55:02.887Z,28.18
2022-08-03T09:58:09.578Z,28.11
2022-08-03T10:01:23.725Z,27.98
2022-08-03T10:04:30.336Z,27.91
2022-08-03T10:07:46.139Z,27.92
2022-08-03T10:10:53.982Z,27.91
2022-08-03T10:14:01.075Z,27.74
2022-08-03T10:17:05.040Z,27.92
2022-08-03T10:20:11.317Z,27.96
2022-08-03T10:23:16.167Z,27.94
2022-08-03T10:26:23.703Z,27.79
2022-08-03T10:29:30.328Z,27.99
2022-08-03T10:32:37.275Z,27.92
2022-08-03T10:35:43.546Z,27.89
2022-08-03T10:38:52.686Z,27.74
2022-08-03T10:41:58.332Z,27.65
2022-08-03T10:45:06.645Z,27.60
2022-08-03T10:48:10.812Z,27.52
2022-08-03T10:51:15.689Z,27.52
2022-08-03T10:55:03.104Z,27.51
2022-08-03T10:58:11.266Z,27.72
2022-08-03T11:01:15.114Z,27.81
2022-08-03T11:04:20.076Z,27.90
2022-08-03T11:07:26.461Z,27.99
2022-08-03T11:10:32.613Z,28.02
2022-08-03T11:13:35.790Z,28.04
2022-08-03T11:16:41.015Z,28.07
2022-08-03T11:19:57.466Z,28.00
2022-08-03T11:23:03.065Z,27.98
2022-08-03T11:26:13.791Z,27.89
2022-08-03T11:29:29.296Z,27.86
2022-08-03T11:33:01.419Z,27.89
2022-08-03T11:36:04.879Z,27.98
2022-08-03T11:39:16.886Z,28.04
2022-08-03T11:42:47.344Z,28.07
2022-08-03T11:45:59.909Z,27.90
2022-08-03T11:49:10.254Z,27.74
2022-08-03T11:52:14.416Z,27.67
2022-08-03T11:55:22.069Z,27.63
2022-08-03T11:58:58.315Z,27.90
2022-08-03T12:01:48.977Z,28.03
2022-08-03T12:04:52.653Z,28.23
2022-08-03T12:08:03.150Z,28.31
2022-08-03T12:11:13.017Z,28.40
2022-08-03T12:14:50.128Z,28.59
2022-08-03T12:17:42.457Z,28.65
2022-08-03T12:20:46.514Z,28.64
2022-08-03T12:23:49.596Z,28.55
2022-08-03T12:26:58.536Z,28.47
2022-08-03T12:30:03.325Z,28.54
2022-08-03T12:33:17.298Z,28.62
2022-08-03T12:36:22.120Z,28.74
2022-08-03T12:39:27.998Z,28.71
2022-08-03T12:42:34.943Z,28.77
2022-08-03T12:45:38.441Z,28.79
2022-08-03T12:49:01.145Z,28.58
2022-08-03T12:52:07.627Z,28.58
2022-08-03T12:55:21.824Z,28.49
2022-08-03T12:58:35.015Z,28.46
2022-08-03T13:01:55.211Z,28.31
2022-08-03T13:05:00.231Z,28.17
2022-08-03T13:08:03.382Z,28.08
2022-08-03T13:11:20.499Z,27.97
2022-08-03T13:14:24.994Z,28.00
2022-08-03T13:17:30.270Z,28.18
2022-08-03T13:20:33.880Z,28.31
2022-08-03T13:23:37.085Z,28.23
2022-08-03T13:26:40.138Z,28.11
2022-08-03T13:29:44.895Z,28.08
2022-08-03T13:32:48.018Z,27.93
2022-08-03T13:35:51.115Z,27.99
2022-08-03T13:38:54.603Z,28.10
2022-08-03T13:41:58.783Z,27.99
2022-08-03T13:45:04.234Z,28.01
2022-08-03T13:48:07.790Z,27.79
2022-08-03T13:51:22.255Z,27.87
2022-08-03T13:54:26.220Z,27.82
2022-08-03T13:58:05.918Z,27.77
2022-08-03T14:00:54.129Z,27.84
2022-08-03T14:03:58.373Z,27.88
2022-08-03T14:07:04.100Z,27.86
2022-08-03T14:10:08.475Z,27.85
2022-08-03T14:13:12.479Z,27.92
2022-08-03T14:16:17.142Z,28.02
2022-08-03T14:19:21.357Z,28.08
2022-08-03T14:22:28.777Z,28.21
2022-08-03T14:25:43.024Z,28.28
2022-08-03T14:28:46.907Z,28.36
2022-08-03T14:32:12.051Z,28.41
2022-08-03T14:35:14.611Z,28.39
2022-08-03T14:38:18.379Z,28.49
2022-08-03T14:41:21.440Z,28.47
2022-08-03T14:44:24.557Z,28.39
2022-08-03T14:47:29.024Z,28.40
2022-08-03T14:50:41.926Z,28.31
2022-08-03T14:53:48.777Z,28.30
2022-08-03T14:56:51.957Z,28.24
2022-08-03T14:59:58.189Z,28.32
2022-08-03T15:03:02.954Z,28.20
2022-08-03T15:06:06.153Z,27.72
2022-08-03T15:09:23.662Z,27.00
2022-08-03T15:12:27.196Z,26.71
2022-08-03T15:15:30.460Z,26.62
2022-08-03T15:18:34.953Z,26.51
2022-08-03T15:21:46.979Z,26.36
2022-08-03T15:24:51.072Z,26.31
2022-08-03T15:28:03.445Z,26.18
2022-08-03T15:31:07.722Z,25.99
2022-08-03T15:34:12.863Z,25.94
2022-08-03T15:37:16.616Z,25.84
2022-08-03T15:40:19.931Z,25.80
2022-08-03T15:43:23.076Z,25.68
2022-08-03T15:46:29.635Z,25.57
2022-08-03T15:49:34.526Z,25.50
2022-08-03T15:52:37.592Z,25.43
2022-08-03T15:55:40.661Z,25.33
2022-08-03T15:59:04.173Z,25.23
2022-08-03T16:02:07.106Z,25.38
2022-08-03T16:05:11.791Z,25.95
2022-08-03T16:08:14.879Z,26.30
2022-08-03T16:11:18.008Z,26.63
2022-08-03T16:14:32.518Z,26.90
2022-08-03T16:17:42.364Z,27.08
2022-08-03T16:20:48.359Z,27.13
2022-08-03T16:23:51.591Z,27.27
2022-08-03T16:26:54.710Z,26.82
2022-08-03T16:29:57.802Z,26.94
2022-08-03T16:33:00.919Z,27.00
2022-08-03T16:36:05.603Z,27.08
2022-08-03T16:39:08.731Z,27.06
2022-08-03T16:42:11.905Z,27.13
2022-08-03T16:45:15.756Z,27.15
2022-08-03T16:48:20.064Z,27.15
2022-08-03T16:51:24.546Z,27.18
2022-08-03T16:54:43.411Z,27.14
2022-08-03T16:57:59.069Z,27.20
2022-08-03T17:01:24.430Z,27.16
2022-08-03T17:04:27.113Z,26.93
2022-08-03T17:07:33.687Z,27.13
2022-08-03T17:10:37.190Z,27.03
2022-08-03T17:13:41.307Z,26.64
2022-08-03T17:16:52.049Z,26.47
2022-08-03T17:19:57.619Z,26.69
2022-08-03T17:23:35.189Z,27.01
2022-08-03T17:26:43.295Z,27.33
2022-08-03T17:29:50.802Z,27.44
2022-08-03T17:32:57.536Z,27.41
2022-08-03T17:36:01.324Z,27.42
2022-08-03T17:39:07.655Z,27.37
2022-08-03T17:42:29.216Z,27.53
2022-08-03T17:45:55.079Z,27.43
2022-08-03T17:48:58.155Z,27.43
2022-08-03T17:52:04.101Z,27.41
2022-08-03T17:55:58.553Z,27.43
2022-08-03T17:58:54.772Z,27.49
2022-08-03T18:02:30.437Z,27.58
2022-08-03T18:06:10.723Z,27.58
2022-08-03T18:09:05.341Z,27.60
2022-08-03T18:12:30.260Z,27.64
2022-08-03T18:15:38.940Z,27.74
2022-08-03T18:18:43.721Z,27.73
2022-08-03T18:22:03.498Z,27.62
2022-08-03T18:25:09.710Z,27.38
2022-08-03T18:28:19.591Z,27.53
2022-08-03T18:31:59.802Z,27.40
2022-08-03T18:34:53.783Z,27.59
2022-08-03T18:38:01.058Z,27.55
2022-08-03T18:41:07.042Z,27.57
2022-08-03T18:44:53.358Z,27.62
2022-08-03T18:47:54.969Z,27.58
2022-08-03T18:51:03.045Z,27.56
2022-08-03T18:54:59.128Z,27.58
2022-08-03T18:57:46.404Z,27.66
2022-08-03T19:00:58.428Z,27.81
2022-08-03T19:04:10.465Z,27.90
2022-08-03T19:07:23.397Z,27.96
2022-08-03T19:10:31.487Z,28.00
2022-08-03T19:13:41.569Z,28.04
2022-08-03T19:16:49.824Z,28.10
2022-08-03T19:19:53.608Z,28.07
2022-08-03T19:22:58.440Z,28.11
2022-08-03T19:26:04.699Z,28.07
2022-08-03T19:29:59.163Z,27.98
2022-08-03T19:32:54.933Z,27.91
2022-08-03T19:35:59.157Z,27.84
2022-08-03T19:39:09.009Z,27.77
2022-08-03T19:42:20.414Z,27.52
2022-08-03T19:46:04.417Z,27.60
2022-08-03T19:49:02.788Z,27.64
2022-08-03T19:52:08.024Z,27.75
2022-08-03T19:55:12.736Z,27.74
2022-08-03T19:58:24.353Z,27.95
2022-08-03T20:01:32.224Z,28.03
2022-08-03T20:04:56.008Z,28.10
2022-08-03T20:08:02.222Z,28.14
2022-08-03T20:11:05.499Z,28.17
2022-08-03T20:14:11.657Z,28.20
2022-08-03T20:17:21.130Z,28.16
2022-08-03T20:20:28.612Z,27.94
2022-08-03T20:23:39.187Z,27.75
2022-08-03T20:27:05.191Z,27.58
2022-08-03T20:30:12.169Z,27.43
2022-08-03T20:33:18.705Z,27.41
2022-08-03T20:36:23.972Z,27.32
2022-08-03T20:39:30.236Z,27.26
2022-08-03T20:42:34.890Z,27.26
2022-08-03T20:46:00.075Z,27.31
2022-08-03T20:49:03.790Z,27.38
2022-08-03T20:52:09.004Z,27.46
2022-08-03T20:55:47.865Z,27.54
2022-08-03T20:58:50.291Z,27.54
2022-08-03T21:01:54.026Z,27.61
2022-08-03T21:04:59.045Z,27.59
2022-08-03T21:08:12.514Z,27.50
2022-08-03T21:11:19.988Z,27.28
2022-08-03T21:14:32.946Z,27.22
2022-08-03T21:17:43.441Z,27.19
2022-08-03T21:20:48.428Z,27.08
2022-08-03T21:23:54.656Z,27.05
2022-08-03T21:26:59.782Z,26.98
2022-08-03T21:30:05.149Z,26.92
2022-08-03T21:33:08.245Z,26.93
2022-08-03T21:36:12.130Z,26.79
2022-08-03T21:39:16.778Z,26.84
2022-08-03T21:42:21.105Z,26.87
2022-08-03T21:45:24.559Z,27.09
2022-08-03T21:48:29.208Z,27.15
2022-08-03T21:51:34.058Z,27.16
2022-08-03T21:54:42.784Z,27.18
2022-08-03T21:57:52.167Z,27.26
2022-08-03T22:00:55.886Z,27.15
2022-08-03T22:03:59.762Z,27.04
2022-08-03T22:07:03.510Z,26.97
2022-08-03T22:10:08.802Z,26.90
2022-08-03T22:13:12.775Z,26.81
2022-08-03T22:16:17.147Z,26.80
2022-08-03T22:19:20.243Z,26.77
2022-08-03T22:22:24.325Z,26.78
2022-08-03T22:25:31.177Z,26.75
2022-08-03T22:28:35.159Z,26.81
2022-08-03T22:31:58.513Z,26.89
2022-08-03T22:35:05.989Z,26.90
2022-08-03T22:38:12.221Z,26.99
2022-08-03T22:41:19.698Z,27.03
2022-08-03T22:44:23.457Z,27.05
2022-08-03T22:47:26.673Z,27.05
2022-08-03T22:50:31.234Z,27.02
2022-08-03T22:53:37.426Z,26.89
2022-08-03T22:56:42.582Z,26.78
2022-08-03T22:59:47.363Z,26.74
2022-08-03T23:02:52.239Z,26.68
2022-08-03T23:06:01.532Z,26.64
2022-08-03T23:09:09.141Z,26.56
2022-08-03T23:12:15.962Z,26.58
2022-08-03T23:15:19.345Z,26.57
2022-08-03T23:18:24.007Z,26.56
2022-08-03T23:21:53.835Z,26.42
2022-08-03T23:24:53.007Z,26.74
2022-08-03T23:28:05.693Z,26.26
2022-08-03T23:31:09.670Z,26.81
2022-08-03T23:34:32.051Z,26.72
2022-08-03T23:38:10.762Z,26.62
2022-08-03T23:41:00.843Z,26.59
2022-08-03T23:44:05.855Z,26.67
2022-08-03T23:47:08.998Z,26.68
2022-08-03T23:50:12.610Z,26.68
2022-08-03T23:53:22.304Z,26.63
2022-08-03T23:56:33.395Z,26.54
2022-08-03T23:59:45.359Z,26.53
